Time;durP1;ratioP1;P1;durP2;ratioP2;P2;SDS_P1;SDS_P2;PMS_P1;PMS_P2;Temp;Humidity;BMP_temperature;BMP_pressure;BME280_temperature;BME280_humidity;BME280_pressure;Samples;Min_cycle;Max_cycle;Signal;HPM_P1;HPM_P2
2022/08/21 00:01:34;;;;;;;1.85;0.50;;;16.30;99.90;;;;;;20838605;28;20033;-83
2022/08/21 00:11:37;;;;;;;3.90;2.10;;;16.30;99.90;;;;;;20851576;28;20045;-83
2022/08/21 00:21:38;;;;;;;2.45;0.93;;;16.30;99.90;;;;;;20827380;28;20029;-83
2022/08/21 00:31:40;;;;;;;1.33;0.50;;;16.30;99.90;;;;;;20819169;28;20045;-83
2022/08/21 00:41:41;;;;;;;2.63;0.82;;;16.30;99.90;;;;;;20845850;28;20041;-82
2022/08/21 00:51:59;;;;;;;5.47;1.42;;;16.30;99.90;;;;;;20847787;28;20095;-83
2022/08/21 01:02:00;;;;;;;2.63;0.97;;;16.30;99.90;;;;;;20831185;28;20481;-83
2022/08/21 01:12:03;;;;;;;0.98;0.70;;;16.30;99.90;;;;;;20834995;28;20037;-83
2022/08/21 01:22:05;;;;;;;1.20;0.43;;;16.40;99.90;;;;;;20818082;28;20483;-83
2022/08/21 01:32:14;;;;;;;1.58;0.50;;;16.30;99.90;;;;;;20825793;28;20090;-83
2022/08/21 01:42:15;;;;;;;1.65;0.55;;;16.20;99.90;;;;;;20832200;28;20543;-83
2022/08/21 01:52:16;;;;;;;3.10;0.73;;;16.10;99.90;;;;;;20826271;28;20066;-83
2022/08/21 02:02:17;;;;;;;1.60;0.52;;;16.00;99.90;;;;;;20842804;28;20056;-83
2022/08/21 02:12:18;;;;;;;1.80;0.75;;;16.00;99.90;;;;;;20828834;28;20045;-83
2022/08/21 02:22:19;;;;;;;1.42;0.85;;;16.00;99.90;;;;;;20847089;28;20040;-83
2022/08/21 02:42:30;;;;;;;2.00;0.73;;;16.00;99.90;;;;;;20710919;28;20041;-83
2022/08/21 02:52:31;;;;;;;3.38;0.60;;;15.90;99.90;;;;;;20722478;28;20559;-83
2022/08/21 03:02:32;;;;;;;3.22;1.17;;;15.90;99.90;;;;;;20703561;28;20034;-83
2022/08/21 03:12:35;;;;;;;1.77;0.80;;;15.90;99.90;;;;;;20696271;28;20044;-83
2022/08/21 03:22:36;;;;;;;2.60;0.75;;;15.80;99.90;;;;;;20710228;28;20036;-84
2022/08/21 03:32:37;;;;;;;8.70;0.77;;;15.70;99.90;;;;;;20688707;28;20639;-83
2022/08/21 03:42:38;;;;;;;3.30;1.27;;;15.70;99.90;;;;;;20785433;28;20129;-83
2022/08/21 03:52:39;;;;;;;6.15;1.05;;;15.60;99.90;;;;;;20772850;28;20045;-84
2022/08/21 04:02:40;;;;;;;2.60;1.02;;;15.50;99.90;;;;;;20760797;28;20037;-83
2022/08/21 04:12:42;;;;;;;2.53;1.35;;;15.60;99.90;;;;;;20769213;28;20033;-83
2022/08/21 04:22:44;;;;;;;2.58;1.25;;;15.50;99.90;;;;;;20775246;28;20033;-83
2022/08/21 04:32:48;;;;;;;4.10;1.90;;;15.40;99.90;;;;;;20769850;28;20083;-83
2022/08/21 04:42:53;;;;;;;3.55;1.33;;;15.40;99.90;;;;;;20817485;28;20061;-83
2022/08/21 04:52:55;;;;;;;2.55;1.13;;;15.40;99.90;;;;;;20795594;28;20567;-83
2022/08/21 05:02:58;;;;;;;3.15;1.25;;;15.40;99.90;;;;;;20796451;28;20058;-83
2022/08/21 05:13:00;;;;;;;3.38;1.42;;;15.40;99.90;;;;;;20811067;28;20045;-82
2022/08/21 05:23:11;;;;;;;4.10;1.58;;;15.40;99.90;;;;;;20812327;28;20041;-83
2022/08/21 05:33:12;;;;;;;7.72;1.83;;;15.40;99.90;;;;;;20844639;28;20591;-82
2022/08/21 05:43:14;;;;;;;3.67;1.77;;;15.60;99.90;;;;;;20791742;28;20078;-82
2022/08/21 05:53:17;;;;;;;3.50;2.00;;;15.70;99.90;;;;;;20790946;28;20435;-83
2022/08/21 06:03:24;;;;;;;2.63;1.30;;;16.40;99.90;;;;;;20789125;28;20038;-83
2022/08/21 06:13:25;;;;;;;2.40;1.03;;;16.50;99.90;;;;;;20799959;28;20705;-83
2022/08/21 06:23:27;;;;;;;3.75;1.65;;;16.50;99.90;;;;;;20785651;28;20666;-83
2022/08/21 06:33:28;;;;;;;6.28;1.55;;;16.50;99.90;;;;;;20811146;28;20058;-82
2022/08/21 06:43:29;;;;;;;4.18;1.48;;;16.50;99.90;;;;;;20817009;28;20037;-82
2022/08/21 06:53:30;;;;;;;2.38;1.05;;;16.70;99.90;;;;;;20794719;28;20091;-83
2022/08/21 07:03:39;;;;;;;8.25;1.92;;;16.90;99.90;;;;;;20790036;28;20645;-83
2022/08/21 07:13:40;;;;;;;3.67;1.15;;;17.20;99.90;;;;;;20792242;28;20440;-83
2022/08/21 07:23:44;;;;;;;2.17;0.98;;;17.40;99.90;;;;;;20781928;28;20072;-83
2022/08/21 07:33:46;;;;;;;3.20;1.23;;;17.70;99.90;;;;;;20812806;28;21345;-83
2022/08/21 07:43:47;;;;;;;3.83;1.70;;;18.10;99.90;;;;;;20783538;28;20033;-83
2022/08/21 07:53:53;;;;;;;6.30;2.83;;;18.30;99.90;;;;;;20777525;28;20064;-83
2022/08/21 08:03:55;;;;;;;3.45;1.25;;;18.50;99.90;;;;;;20783254;28;20033;-83
2022/08/21 08:13:57;;;;;;;3.08;1.15;;;18.90;99.90;;;;;;20805082;28;20083;-82
2022/08/21 08:23:59;;;;;;;5.97;1.83;;;19.40;99.90;;;;;;20815877;28;20028;-83
2022/08/21 08:33:59;;;;;;;5.93;2.40;;;20.00;99.90;;;;;;20812770;28;20526;-83
2022/08/21 08:44:05;;;;;;;6.28;1.42;;;19.90;99.90;;;;;;20813914;28;20354;-83
2022/08/21 08:54:11;;;;;;;2.83;1.10;;;20.30;99.90;;;;;;20809292;28;20045;-82
2022/08/21 09:04:16;;;;;;;3.83;1.20;;;20.80;99.90;;;;;;20814019;28;20030;-82
2022/08/21 09:14:45;;;;;;;4.20;1.40;;;21.30;99.90;;;;;;20808601;28;20052;-82
2022/08/21 09:25:15;;;;;;;2.45;0.90;;;21.70;99.90;;;;;;20812332;28;20571;-82
2022/08/21 09:35:21;;;;;;;2.83;0.80;;;21.90;99.90;;;;;;20827424;28;20041;-82
2022/08/21 09:45:22;;;;;;;5.63;1.83;;;22.10;99.90;;;;;;20795916;28;21521;-82
2022/08/21 10:06:08;;;;;;;4.07;1.40;;;22.80;99.90;;;;;;20830492;28;20718;-82
2022/08/21 10:16:27;;;;;;;2.15;0.93;;;22.60;99.90;;;;;;20796080;28;20095;-82
2022/08/21 10:27:05;;;;;;;2.55;0.70;;;22.60;99.90;;;;;;20811138;28;20761;-82
2022/08/21 10:37:25;;;;;;;4.18;1.38;;;22.80;99.90;;;;;;20811281;28;20423;-82
2022/08/21 10:47:48;;;;;;;1.67;0.90;;;21.90;99.90;;;;;;20797288;28;20754;-81
2022/08/21 10:58:01;;;;;;;2.97;1.05;;;21.40;99.90;;;;;;20795479;28;20172;-82
2022/08/21 11:08:22;;;;;;;2.15;0.80;;;21.50;99.90;;;;;;20785221;28;20036;-81
2022/08/21 11:18:36;;;;;;;3.42;1.13;;;22.90;99.90;;;;;;20805636;28;20670;-81
2022/08/21 11:29:01;;;;;;;1.65;0.60;;;24.10;99.90;;;;;;20773421;28;20504;-81
2022/08/21 11:39:22;;;;;;;2.00;0.85;;;24.40;99.90;;;;;;20784561;28;20041;-81
2022/08/21 11:49:38;;;;;;;0.93;0.40;;;24.60;99.90;;;;;;20809157;28;20650;-81
2022/08/21 11:59:46;;;;;;;1.33;0.47;;;24.30;99.90;;;;;;20852460;28;20707;-80
2022/08/21 12:09:56;;;;;;;5.57;0.68;;;23.50;99.90;;;;;;20839304;28;20036;-81
2022/08/21 12:20:17;;;;;;;2.10;0.82;;;24.00;99.90;;;;;;20836893;28;20033;-82
2022/08/21 12:30:43;;;;;;;1.25;0.50;;;24.30;99.90;;;;;;20828299;28;20143;-81
2022/08/21 12:41:03;;;;;;;0.95;0.38;;;24.40;99.90;;;;;;20866462;28;20494;-81
2022/08/21 12:51:12;;;;;;;4.25;0.55;;;25.00;99.90;;;;;;20831893;28;20078;-81
2022/08/21 13:01:25;;;;;;;1.55;0.82;;;25.00;99.90;;;;;;20868249;28;20525;-81
2022/08/21 13:11:26;;;;;;;1.27;0.40;;;24.20;99.90;;;;;;20838488;28;20075;-80
2022/08/21 13:21:31;;;;;;;1.15;0.38;;;24.00;99.90;;;;;;20849709;28;20448;-81
2022/08/21 13:31:33;;;;;;;0.55;0.20;;;24.20;99.90;;;;;;20811906;28;20083;-81
2022/08/21 13:41:37;;;;;;;1.27;0.40;;;24.40;99.90;;;;;;20846163;28;20114;-81
2022/08/21 13:51:38;;;;;;;1.65;0.80;;;24.20;99.90;;;;;;20815278;28;20090;-81
2022/08/21 14:01:54;;;;;;;2.78;0.38;;;24.30;99.90;;;;;;20807444;28;20033;-80
2022/08/21 14:11:57;;;;;;;1.23;0.50;;;25.00;99.90;;;;;;20830359;28;20100;-80
2022/08/21 14:21:58;;;;;;;1.10;0.35;;;25.60;99.90;;;;;;20836047;28;20037;-80
2022/08/21 14:32:07;;;;;;;2.20;0.35;;;24.40;99.90;;;;;;20804198;28;20030;-80
2022/08/21 14:42:08;;;;;;;2.08;0.30;;;23.90;99.90;;;;;;20850456;28;20037;-81
2022/08/21 14:52:09;;;;;;;1.13;0.40;;;23.50;99.90;;;;;;20835167;28;20021;-80
2022/08/21 15:02:11;;;;;;;0.65;0.25;;;23.30;99.90;;;;;;20812229;28;20041;-80
2022/08/21 15:12:14;;;;;;;0.47;0.17;;;23.10;99.90;;;;;;20846374;28;20022;-80
2022/08/21 15:22:15;;;;;;;0.98;0.45;;;22.90;99.90;;;;;;20828385;28;20046;-81
2022/08/21 15:32:22;;;;;;;2.20;0.38;;;22.50;99.90;;;;;;20821851;28;20043;-81
2022/08/21 15:42:28;;;;;;;2.30;0.82;;;22.50;99.90;;;;;;20830361;28;20067;-81
2022/08/21 15:52:29;;;;;;;1.48;0.47;;;22.50;99.90;;;;;;20849590;28;20613;-81
2022/08/21 16:02:32;;;;;;;1.17;0.40;;;22.70;99.90;;;;;;20840250;28;20029;-80
2022/08/21 16:12:37;;;;;;;1.02;0.55;;;22.60;99.90;;;;;;20820652;28;20033;-81
2022/08/21 16:22:39;;;;;;;2.50;0.60;;;22.50;99.90;;;;;;20813900;28;20025;-81
2022/08/21 16:32:40;;;;;;;0.65;0.30;;;22.70;99.90;;;;;;20852497;28;20029;-80
2022/08/21 16:42:45;;;;;;;7.60;1.10;;;22.50;99.90;;;;;;20844472;28;20037;-81
2022/08/21 16:52:47;;;;;;;0.95;0.32;;;22.50;99.90;;;;;;20837072;28;20079;-80
2022/08/21 17:02:52;;;;;;;0.82;0.50;;;22.40;99.90;;;;;;20842346;28;20029;-81
2022/08/21 17:12:57;;;;;;;2.22;0.40;;;22.20;99.90;;;;;;20853096;28;20036;-80
2022/08/21 17:22:58;;;;;;;0.93;0.38;;;22.00;99.90;;;;;;20845811;28;20033;-81
2022/08/21 17:33:00;;;;;;;2.75;0.60;;;21.80;99.90;;;;;;20822708;28;20041;-81
2022/08/21 17:43:01;;;;;;;1.60;0.40;;;21.60;99.90;;;;;;20798008;28;20071;-81
2022/08/21 17:53:02;;;;;;;1.42;0.57;;;21.50;99.90;;;;;;20815123;28;20041;-81
2022/08/21 18:03:13;;;;;;;0.98;0.40;;;21.40;99.90;;;;;;20822941;28;20028;-81
2022/08/21 18:13:19;;;;;;;1.50;1.02;;;21.20;99.90;;;;;;20831548;28;20672;-81
2022/08/21 18:23:21;;;;;;;1.05;0.50;;;21.10;99.90;;;;;;20819735;28;20025;-80
2022/08/21 18:33:23;;;;;;;1.20;0.30;;;20.90;99.90;;;;;;20835571;28;20056;-81
2022/08/21 18:43:25;;;;;;;2.17;0.80;;;20.80;99.90;;;;;;20817283;28;20064;-81
2022/08/21 18:53:27;;;;;;;1.65;0.47;;;20.70;99.90;;;;;;20842185;28;20045;-81
2022/08/21 19:03:28;;;;;;;2.17;1.08;;;20.50;99.90;;;;;;20829032;28;20114;-81
2022/08/21 19:13:29;;;;;;;3.78;0.68;;;20.10;99.90;;;;;;20816815;28;20079;-82
2022/08/21 19:23:31;;;;;;;1.30;0.50;;;19.90;99.90;;;;;;20849626;28;20075;-81
2022/08/21 19:33:36;;;;;;;2.47;1.13;;;19.80;99.90;;;;;;20835206;28;20057;-81
2022/08/21 19:43:46;;;;;;;1.92;0.43;;;19.50;99.90;;;;;;20871580;28;20520;-82
2022/08/21 19:53:47;;;;;;;0.47;0.20;;;19.50;99.90;;;;;;20849123;28;20067;-81
2022/08/21 20:03:48;;;;;;;0.98;0.40;;;19.40;99.90;;;;;;20838665;28;20041;-81
2022/08/21 20:13:50;;;;;;;1.45;0.52;;;19.30;99.90;;;;;;20863279;28;20090;-81
2022/08/21 20:23:51;;;;;;;1.70;0.57;;;19.30;99.90;;;;;;20846138;28;20084;-82
2022/08/21 20:33:52;;;;;;;2.08;0.45;;;19.30;99.90;;;;;;20840827;28;20120;-82
2022/08/21 20:43:55;;;;;;;2.47;0.98;;;19.20;99.90;;;;;;20849118;28;20034;-82
2022/08/21 20:54:04;;;;;;;1.30;0.52;;;19.10;99.90;;;;;;20829550;28;20039;-82
2022/08/21 21:04:17;;;;;;;0.95;0.30;;;19.10;99.90;;;;;;20857361;28;20698;-82
2022/08/21 21:14:34;;;;;;;0.93;0.30;;;19.10;99.90;;;;;;20833175;28;20034;-82
2022/08/21 21:25:01;;;;;;;0.98;0.40;;;19.10;99.90;;;;;;20827876;28;20038;-82
2022/08/21 21:35:04;;;;;;;0.73;0.40;;;19.10;99.90;;;;;;20841007;28;20033;-82
2022/08/21 21:45:14;;;;;;;1.27;0.40;;;19.00;99.90;;;;;;20856276;28;20566;-82
2022/08/21 21:55:54;;;;;;;1.65;0.55;;;19.00;99.90;;;;;;20871536;28;20049;-82
2022/08/21 22:06:11;;;;;;;2.33;0.52;;;19.00;99.90;;;;;;20808614;28;20041;-82
2022/08/21 22:16:13;;;;;;;1.25;0.40;;;18.90;99.90;;;;;;20820338;28;20710;-82
2022/08/21 22:26:21;;;;;;;2.60;0.45;;;18.80;99.90;;;;;;20813991;28;20030;-82
2022/08/21 22:36:22;;;;;;;1.48;0.30;;;18.80;99.90;;;;;;20821156;28;20507;-82
2022/08/21 22:46:31;;;;;;;1.45;0.43;;;18.70;99.90;;;;;;20827645;28;20096;-82
2022/08/21 22:56:46;;;;;;;1.65;0.80;;;18.60;99.90;;;;;;20824051;28;20673;-82
2022/08/21 23:06:57;;;;;;;0.95;0.43;;;18.60;99.90;;;;;;20853878;28;20127;-82
2022/08/21 23:17:41;;;;;;;1.80;0.93;;;18.60;99.90;;;;;;20863854;28;20037;-82
2022/08/21 23:28:13;;;;;;;1.35;0.40;;;18.50;99.90;;;;;;20844969;28;20621;-82
2022/08/21 23:38:50;;;;;;;3.22;0.60;;;18.40;99.90;;;;;;20829856;28;20564;-82
2022/08/21 23:49:14;;;;;;;1.48;0.40;;;18.30;99.90;;;;;;20844479;28;20033;-82
2022/08/21 23:59:39;;;;;;;1.80;0.80;;;18.30;99.90;;;;;;20846135;28;20041;-82
